PAMD METAR and TAF weather

Enter ICAO airport designator
Station Type Date Time Source
PAMD METAR 2019/12/16 05:51 UTC NOAA

PAMD 160551Z AUTO 09036G46KT 4SM -RA BR SCT017 BKN023 OVC028 05/04 A2937 RMK AO2 PK WND 08048/0518 SLP933 P0000 60001 T00500039 10067 20050 58003


Station Type Date Time Source
PAMD Decoded METAR 2019/12/16 05:51 UTC NOAA

Middleton Island, Middleton Island Airport, AK, United States (PAMD) 59-26N 146-18W 14M
Dec 16, 2019 - 12:51 AM EST / 2019.12.16 0551 UTC
Wind: from the E (090 degrees) at 41 MPH (36 KT) gusting to 53 MPH (46 KT):0
Visibility: 4 mile(s):0
Sky conditions: overcast
Weather: light rain; mist
Precipitation last hour: A trace
Temperature: 41.0 F (5.0 C)
Dew Point: 39.0 F (3.9 C)
Relative Humidity: 92%
Pressure (altimeter): 29.37 in. Hg (994 hPa)
Pressure tendency: 0.01 inches (0.3 hPa) lower than three hours ago
ob: PAMD 160551Z AUTO 09036G46KT 4SM -RA BR SCT017 BKN023 OVC028 05/04 A2937 RMK AO2 PK WND 08048/0518 SLP933 P0000 60001 T00500039 10067 20050 58003
cycle: 6

Station Type Date Time Source
PAMD TAF UTC NOAA

Error!

Example: see airport list